Terminal Aerodrome Forecast
Issued by NWS

Home | Current Version | Previous Version | Text Only | Print | Product List | Glossary On
Versions: 1 2 3 4 5 6 7 8 9 10 11 12 13 14 15 16 17 18 19 20 21 22 23 24 25
000
FTUS46 KMTR 222300
TAFSFO
TAF
KSFO 222338Z 2300/2406 26015G22KT P6SM FEW009
     FM230200 27015G22KT P6SM BKN010
     FM230500 25007KT P6SM BKN008 OVC010
     FM231800 VRB04KT P6SM FEW010 SCT015
     FM232100 28013KT P6SM FEW020
     FM240500 28010KT P6SM FEW020=

USA.gov is the U.S. government's official web portal to all federal, state and local government web resources and services.